createdAt,value
2019-04-16T00:02:03.831Z,99
2019-04-16T00:07:34.809Z,99
2019-04-16T00:13:05.835Z,100
2019-04-16T00:18:36.733Z,99
2019-04-16T00:24:07.750Z,98
2019-04-16T00:29:39.680Z,98
2019-04-16T00:35:09.706Z,98
2019-04-16T00:40:40.599Z,98
2019-04-16T00:46:12.227Z,94
2019-04-16T00:51:42.599Z,96
2019-04-16T00:57:17.622Z,95
2019-04-16T01:02:46.889Z,95
2019-04-16T01:08:15.451Z,95
2019-04-16T01:13:46.427Z,97
2019-04-16T01:19:17.335Z,99
2019-04-16T01:24:51.332Z,101
2019-04-16T01:30:19.175Z,102
2019-04-16T01:35:51.470Z,102
2019-04-16T01:41:21.904Z,102
2019-04-16T01:46:51.769Z,102
2019-04-16T01:52:22.607Z,101
2019-04-16T01:57:53.484Z,101
2019-04-16T02:03:24.420Z,100
2019-04-16T02:08:55.242Z,100
2019-04-16T02:14:26.031Z,99
2019-04-16T02:19:56.899Z,100
2019-04-16T02:25:27.832Z,98
2019-04-16T02:30:58.753Z,98
2019-04-16T02:36:29.648Z,98
2019-04-16T02:42:00.872Z,98
2019-04-16T02:47:31.896Z,100
2019-04-16T02:53:02.396Z,101
2019-04-16T02:58:34.274Z,102
2019-04-16T03:04:04.178Z,102
2019-04-16T03:09:39.715Z,102
2019-04-16T03:15:05.911Z,101
2019-04-16T03:20:36.832Z,100
2019-04-16T03:26:07.802Z,100
2019-04-16T03:31:38.734Z,102
2019-04-16T03:37:09.619Z,101
2019-04-16T03:42:40.562Z,101
2019-04-16T03:48:11.552Z,101
2019-04-16T03:53:42.464Z,101
2019-04-16T03:59:13.364Z,102
2019-04-16T04:04:44.334Z,102
2019-04-16T04:10:28.955Z,101
2019-04-16T04:15:46.191Z,99
2019-04-16T04:21:20.892Z,100
2019-04-16T04:26:48.010Z,100
2019-04-16T04:32:19.011Z,100
2019-04-16T04:37:49.895Z,100
2019-04-16T04:43:20.923Z,101
2019-04-16T04:48:54.892Z,101
2019-04-16T04:54:23.478Z,100
2019-04-16T04:59:53.747Z,100
2019-04-16T05:05:25.717Z,100
2019-04-16T05:10:59.046Z,100
2019-04-16T05:16:26.698Z,100
2019-04-16T05:21:57.767Z,100
2019-04-16T05:27:29.851Z,100
2019-04-16T05:33:04.844Z,100
2019-04-16T05:38:31.428Z,100
2019-04-16T05:44:02.538Z,99
2019-04-16T05:49:33.708Z,100
2019-04-16T05:55:04.779Z,103
2019-04-16T06:00:38.451Z,101
2019-04-16T06:06:07.913Z,102
2019-04-16T06:11:39.921Z,102
2019-04-16T06:17:11.870Z,102
2019-04-16T06:22:44.107Z,102
2019-04-16T06:28:16.005Z,101
2019-04-16T06:33:48.105Z,101
2019-04-16T06:39:20.154Z,101
2019-04-16T06:44:52.335Z,100
2019-04-16T06:50:31.817Z,99
2019-04-16T06:55:56.983Z,97
2019-04-16T07:01:29.319Z,98
2019-04-16T07:07:01.693Z,97
2019-04-16T07:12:37.879Z,95
2019-04-16T07:18:06.706Z,92
2019-04-16T07:23:39.270Z,92
2019-04-16T07:29:11.591Z,91
2019-04-16T07:34:44.303Z,92
2019-04-16T07:40:17.104Z,92
2019-04-16T07:45:49.841Z,92
2019-04-16T07:51:22.599Z,93
2019-04-16T07:56:55.191Z,91
2019-04-16T08:02:27.906Z,90
2019-04-16T08:08:00.727Z,89
2019-04-16T08:13:34.321Z,89
2019-04-16T08:19:05.740Z,87
2019-04-16T08:24:38.221Z,88
2019-04-16T08:30:11.104Z,87
2019-04-16T08:35:43.229Z,85
2019-04-16T08:41:19.678Z,85
2019-04-16T08:46:48.350Z,82
2019-04-16T08:52:19.833Z,84
2019-04-16T08:57:52.122Z,81
2019-04-16T09:03:26.754Z,80
2019-04-16T09:09:11.041Z,77
2019-04-16T09:14:31.608Z,79
2019-04-16T09:20:06.365Z,77
2019-04-16T09:25:38.972Z,73
2019-04-16T09:31:13.029Z,73
2019-04-16T09:36:46.998Z,73
2019-04-16T09:42:20.901Z,74
2019-04-16T09:47:54.807Z,74
2019-04-16T09:53:33.893Z,75
2019-04-16T09:59:02.445Z,75
2019-04-16T10:04:36.062Z,74
2019-04-16T10:10:09.616Z,73
2019-04-16T10:15:43.463Z,73
2019-04-16T10:21:19.607Z,74
2019-04-16T10:26:51.137Z,74
2019-04-16T10:32:25.014Z,73
2019-04-16T10:37:58.906Z,75
2019-04-16T10:43:43.791Z,71
2019-04-16T10:49:06.631Z,72
2019-04-16T10:54:40.640Z,71
2019-04-16T11:00:14.813Z,70
2019-04-16T11:05:48.663Z,70
2019-04-16T11:11:22.699Z,69
2019-04-16T11:16:56.835Z,69
2019-04-16T11:22:30.846Z,68
2019-04-16T11:28:04.780Z,68
2019-04-16T11:33:38.824Z,69
2019-04-16T11:39:12.785Z,69
2019-04-16T11:44:50.108Z,68
2019-04-16T11:50:20.937Z,70
2019-04-16T11:55:55.193Z,69
2019-04-16T12:01:28.736Z,68
2019-04-16T12:07:05.286Z,68
2019-04-16T12:12:36.421Z,68
2019-04-16T12:18:09.995Z,68
2019-04-16T12:23:43.742Z,68
2019-04-16T12:29:17.224Z,68
2019-04-16T12:34:51.258Z,68
2019-04-16T12:40:24.428Z,69
2019-04-16T12:45:58.042Z,69
2019-04-16T12:51:32.354Z,69
2019-04-16T12:57:04.914Z,69
2019-04-16T13:02:38.287Z,69
2019-04-16T13:08:11.697Z,68
2019-04-16T13:13:44.943Z,68
2019-04-16T13:19:18.312Z,69
2019-04-16T13:24:51.606Z,69
2019-04-16T13:30:24.940Z,69
2019-04-16T13:35:58.216Z,69
2019-04-16T13:41:31.611Z,69
2019-04-16T13:47:04.966Z,69
2019-04-16T13:52:40.181Z,68
2019-04-16T13:58:11.652Z,69
2019-04-16T14:03:45.019Z,69
2019-04-16T14:09:18.347Z,69
2019-04-16T14:14:51.667Z,69
2019-04-16T14:20:25.087Z,68
2019-04-16T14:25:58.668Z,69
2019-04-16T14:31:31.676Z,69
2019-04-16T14:37:04.833Z,69
2019-04-16T14:42:38.041Z,70
2019-04-16T14:48:11.295Z,70
2019-04-16T14:53:44.527Z,70
2019-04-16T14:59:30.227Z,70
2019-04-16T15:04:50.977Z,70
2019-04-16T15:10:24.137Z,71
2019-04-16T15:16:06.551Z,71
2019-04-16T15:21:30.587Z,71
2019-04-16T15:27:03.737Z,71
2019-04-16T15:32:36.920Z,72
2019-04-16T15:38:10.011Z,72
2019-04-16T15:43:43.139Z,74
2019-04-16T15:49:16.251Z,75
2019-04-16T15:54:49.249Z,77
2019-04-16T16:00:22.135Z,77
2019-04-16T16:05:55.148Z,77
2019-04-16T16:11:28.013Z,77
2019-04-16T16:17:00.866Z,80
2019-04-16T16:22:33.685Z,80
2019-04-16T16:28:06.493Z,81
2019-04-16T16:33:41.797Z,82
2019-04-16T16:39:12.083Z,84
2019-04-16T16:44:44.797Z,85
2019-04-16T16:50:17.502Z,85
2019-04-16T16:55:49.985Z,87
2019-04-16T17:06:54.719Z,89
2019-04-16T17:12:27.041Z,90
2019-04-16T17:17:58.907Z,91
2019-04-16T17:23:30.667Z,90
2019-04-16T17:29:03.325Z,91
2019-04-16T17:34:38.604Z,91
2019-04-16T17:40:08.178Z,92
2019-04-16T17:45:40.703Z,93
2019-04-16T17:51:13.110Z,94
2019-04-16T17:56:45.134Z,94
2019-04-16T18:02:17.209Z,94
2019-04-16T18:07:49.302Z,95
2019-04-16T18:13:21.256Z,95
2019-04-16T18:18:53.409Z,95
2019-04-16T18:24:24.919Z,95
2019-04-16T18:29:57.145Z,94
2019-04-16T18:35:29.578Z,95
2019-04-16T18:41:03.916Z,95
2019-04-16T18:46:33.698Z,96
2019-04-16T18:51:58.778Z,96
2019-04-16T18:57:30.389Z,97
2019-04-16T19:03:02.243Z,97
2019-04-16T19:08:41.267Z,97
2019-04-16T19:14:05.010Z,98
2019-04-16T19:19:36.628Z,98
2019-04-16T19:25:08.929Z,99
2019-04-16T19:30:39.655Z,99
2019-04-16T19:36:11.194Z,100
2019-04-16T19:41:42.813Z,100
2019-04-16T19:47:14.321Z,101
2019-04-16T19:52:45.903Z,102
2019-04-16T19:58:17.480Z,102
2019-04-16T20:03:49.006Z,104
2019-04-16T20:09:14.592Z,104
2019-04-16T20:14:46.101Z,105
2019-04-16T20:20:17.615Z,105
2019-04-16T20:25:49.239Z,105
2019-04-16T20:31:20.799Z,106
2019-04-16T20:36:54.990Z,106
2019-04-16T20:42:23.892Z,106
2019-04-16T20:47:55.413Z,106
2019-04-16T20:53:26.934Z,106
2019-04-16T20:59:03.085Z,106
2019-04-16T21:04:30.078Z,106
2019-04-16T21:10:03.490Z,106
2019-04-16T21:15:33.121Z,106
2019-04-16T21:21:04.637Z,105
2019-04-16T21:26:36.096Z,105
2019-04-16T21:32:10.071Z,106
2019-04-16T21:37:39.283Z,105
2019-04-16T21:43:10.661Z,104
2019-04-16T21:48:42.290Z,104
2019-04-16T21:54:13.737Z,104
2019-04-16T21:59:45.243Z,103
2019-04-16T22:05:17.764Z,104
2019-04-16T22:10:48.295Z,103
2019-04-16T22:16:19.765Z,103
2019-04-16T22:21:51.303Z,104
2019-04-16T22:27:22.837Z,104
2019-04-16T22:32:48.067Z,104
2019-04-16T22:38:19.548Z,105
2019-04-16T22:43:51.096Z,106
2019-04-16T22:49:23.267Z,107
2019-04-16T22:54:54.116Z,107
2019-04-16T23:00:25.614Z,107
2019-04-16T23:05:57.023Z,107
2019-04-16T23:11:28.623Z,107
2019-04-16T23:17:00.080Z,107
2019-04-16T23:22:31.561Z,108
2019-04-16T23:28:03.087Z,108
2019-04-16T23:33:34.600Z,108
2019-04-16T23:39:06.100Z,108
2019-04-16T23:44:37.574Z,108
2019-04-16T23:50:09.181Z,108
2019-04-16T23:55:40.499Z,108
